createdAt,value
2022-11-08T00:00:01.803Z,42.6
2022-11-08T00:05:01.763Z,42.4
2022-11-08T00:10:02.036Z,40.0
2022-11-08T00:15:01.769Z,37.4
2022-11-08T00:20:01.942Z,38.4
2022-11-08T00:25:06.644Z,40.1
2022-11-08T00:30:01.754Z,41.0
2022-11-08T00:35:02.411Z,42.8
2022-11-08T00:40:02.130Z,45.6
2022-11-08T00:45:01.949Z,44.7
2022-11-08T00:50:01.715Z,43.4
2022-11-08T00:55:02.026Z,42.4
2022-11-08T01:00:11.745Z,40.6
2022-11-08T01:05:02.186Z,38.0
2022-11-08T01:10:02.022Z,38.2
2022-11-08T01:15:02.143Z,37.9
2022-11-08T01:20:02.233Z,45.1
2022-11-08T01:25:04.777Z,46.4
2022-11-08T01:30:02.821Z,47.6
2022-11-08T01:35:02.173Z,50.5
2022-11-08T01:40:02.003Z,52.7
2022-11-08T01:45:01.767Z,45.6
2022-11-08T01:50:01.755Z,43.8
2022-11-08T01:55:01.748Z,42.0
2022-11-08T02:00:06.813Z,38.6
2022-11-08T02:05:01.777Z,42.2
2022-11-08T02:10:06.628Z,42.7
2022-11-08T02:15:06.997Z,45.1
2022-11-08T02:20:01.714Z,48.0
2022-11-08T02:25:01.970Z,50.3
2022-11-08T02:30:01.630Z,43.8
2022-11-08T02:35:01.780Z,42.2
2022-11-08T02:40:02.012Z,39.9
2022-11-08T02:45:01.850Z,37.8
2022-11-08T02:50:01.675Z,35.9
2022-11-08T02:55:01.720Z,36.5
2022-11-08T03:00:02.414Z,37.3
2022-11-08T03:05:01.766Z,38.4
2022-11-08T03:10:02.251Z,39.8
2022-11-08T03:15:02.801Z,44.1
2022-11-08T03:20:06.666Z,49.1
2022-11-08T03:25:01.747Z,54.2
2022-11-08T03:30:01.694Z,53.1
2022-11-08T03:35:02.033Z,51.6
2022-11-08T03:40:01.643Z,47.7
2022-11-08T03:45:01.749Z,45.4
2022-11-08T03:50:01.782Z,42.1
2022-11-08T03:55:01.589Z,45.5
2022-11-08T04:00:06.682Z,59.2
2022-11-08T04:05:01.772Z,63.4
2022-11-08T04:10:01.676Z,61.0
2022-11-08T04:15:02.751Z,59.4
2022-11-08T04:20:01.787Z,56.9
2022-11-08T04:25:01.691Z,44.0
2022-11-08T04:30:01.981Z,41.8
2022-11-08T04:35:01.635Z,43.0
2022-11-08T04:40:02.088Z,44.5
2022-11-08T04:45:01.635Z,50.4
2022-11-08T04:50:01.568Z,54.8
2022-11-08T04:55:02.089Z,58.1
2022-11-08T05:00:01.924Z,62.1
2022-11-08T05:05:02.029Z,61.3
2022-11-08T05:10:03.308Z,56.5
2022-11-08T05:15:02.781Z,53.9
2022-11-08T05:20:01.973Z,50.0
2022-11-08T05:25:01.653Z,46.2
2022-11-08T05:35:01.564Z,50.6
2022-11-08T05:40:02.664Z,51.5
2022-11-08T05:45:09.806Z,54.6
2022-11-08T05:50:01.713Z,60.0
2022-11-08T06:00:01.799Z,63.4
2022-11-08T06:05:02.165Z,70.8
2022-11-08T06:10:01.568Z,79.3
2022-11-08T06:15:06.683Z,86.5
2022-11-08T06:20:02.040Z,90.2
2022-11-08T06:25:01.701Z,96.0
2022-11-08T06:30:01.533Z,91.3
2022-11-08T06:35:02.152Z,86.0
2022-11-08T06:45:02.794Z,81.1
2022-11-08T06:50:02.839Z,79.0
2022-11-08T07:00:07.256Z,79.1
2022-11-08T07:05:06.722Z,80.4
2022-11-08T07:10:07.496Z,81.0
2022-11-08T07:15:15.231Z,82.2
2022-11-08T07:20:06.660Z,83.8
2022-11-08T07:25:02.009Z,84.2
2022-11-08T07:30:01.726Z,91.3
2022-11-08T07:40:03.638Z,102.4
2022-11-08T07:50:07.680Z,105.8
2022-11-08T08:05:04.360Z,108.2
2022-11-08T08:10:10.813Z,104.5
2022-11-08T08:45:01.576Z,82.8
2022-11-08T08:50:08.749Z,71.1
2022-11-08T09:15:03.429Z,65.6
2022-11-08T09:20:07.578Z,77.6
2022-11-08T09:40:07.508Z,69.4
2022-11-08T09:50:05.236Z,60.4
2022-11-08T10:05:01.731Z,61.0
2022-11-08T10:10:01.575Z,59.2
2022-11-08T10:25:02.338Z,57.2
2022-11-08T10:55:02.399Z,35.6
2022-11-08T11:00:02.066Z,35.9
2022-11-08T11:20:01.969Z,38.8
2022-11-08T11:25:01.654Z,39.5
2022-11-08T11:30:01.492Z,40.0
2022-11-08T11:50:02.015Z,40.1
2022-11-08T11:55:02.580Z,39.5
2022-11-08T12:00:02.361Z,40.8
2022-11-08T12:05:02.229Z,40.4
2022-11-08T12:10:03.469Z,40.9
2022-11-08T12:25:01.696Z,37.2
2022-11-08T12:30:01.546Z,38.2
2022-11-08T12:35:01.613Z,37.5
2022-11-08T12:40:01.515Z,38.2
2022-11-08T13:25:01.600Z,52.2
2022-11-08T13:35:01.324Z,41.7
2022-11-08T13:40:01.316Z,42.0
2022-11-08T13:45:01.486Z,41.0
2022-11-08T13:50:01.328Z,37.5
2022-11-08T14:05:02.045Z,43.4
2022-11-08T14:25:02.949Z,43.4
2022-11-08T14:30:01.116Z,42.4
2022-11-08T14:35:01.522Z,45.5
2022-11-08T14:55:01.849Z,36.8
2022-11-08T15:00:01.600Z,37.0
2022-11-08T15:05:02.039Z,37.7
2022-11-08T15:10:01.685Z,39.6
2022-11-08T15:15:01.900Z,41.0
2022-11-08T15:20:01.908Z,42.6
2022-11-08T15:35:01.323Z,37.0
2022-11-08T15:40:01.137Z,37.7
2022-11-08T15:55:01.561Z,39.6
2022-11-08T16:00:01.474Z,39.4
2022-11-08T16:05:01.539Z,41.2
2022-11-08T16:10:01.480Z,43.0
2022-11-08T16:15:01.644Z,43.9
2022-11-08T16:20:02.138Z,45.4
2022-11-08T16:25:01.773Z,47.8
2022-11-08T16:30:01.969Z,48.2
2022-11-08T16:35:01.646Z,46.1
2022-11-08T16:40:01.579Z,44.0
2022-11-08T16:45:01.893Z,41.9
2022-11-08T16:50:01.881Z,39.3
2022-11-08T17:00:06.531Z,39.8
2022-11-08T17:05:01.682Z,41.3
2022-11-08T17:10:01.426Z,43.2
2022-11-08T17:15:01.590Z,44.5
2022-11-08T17:20:05.946Z,46.0
2022-11-08T17:25:01.650Z,47.2
2022-11-08T17:35:01.568Z,45.2
2022-11-08T17:40:02.190Z,45.6
2022-11-08T17:45:01.966Z,45.4
2022-11-08T17:50:01.501Z,44.5
2022-11-08T17:55:01.924Z,46.1
2022-11-08T18:00:02.008Z,47.4
2022-11-08T18:05:01.598Z,50.2
2022-11-08T18:10:01.536Z,51.2
2022-11-08T18:15:02.866Z,52.4
2022-11-08T18:35:02.199Z,45.0
2022-11-08T18:40:01.877Z,45.9
2022-11-08T18:45:03.293Z,46.3
2022-11-08T18:50:01.993Z,48.2
2022-11-08T18:55:03.150Z,47.6
2022-11-08T19:00:02.302Z,47.8
2022-11-08T19:05:02.100Z,48.1
2022-11-08T19:10:01.900Z,48.2
2022-11-08T19:15:02.262Z,47.4
2022-11-08T19:20:07.282Z,47.8
2022-11-08T19:25:01.970Z,48.8
2022-11-08T19:30:01.865Z,48.7
2022-11-08T19:35:02.045Z,48.1
2022-11-08T19:40:01.907Z,47.3
2022-11-08T19:45:01.982Z,47.0
2022-11-08T19:50:01.998Z,46.2
2022-11-08T20:00:02.126Z,46.4
2022-11-08T20:05:01.876Z,47.5
2022-11-08T20:10:01.876Z,48.9
2022-11-08T20:15:02.004Z,50.0
2022-11-08T20:20:02.029Z,51.4
2022-11-08T20:25:06.887Z,50.0
2022-11-08T20:30:01.797Z,49.1
2022-11-08T20:35:05.791Z,49.0
2022-11-08T20:40:02.193Z,49.0
2022-11-08T20:45:02.004Z,51.3
2022-11-08T20:50:02.285Z,53.7
2022-11-08T20:55:01.923Z,55.0
2022-11-08T21:00:14.535Z,55.2
2022-11-08T21:05:06.836Z,55.7
2022-11-08T21:15:02.908Z,54.0
2022-11-08T21:20:01.832Z,54.7
2022-11-08T21:25:01.866Z,55.0
2022-11-08T21:30:01.842Z,54.0
2022-11-08T21:35:02.095Z,54.9
2022-11-08T21:40:01.916Z,55.8
2022-11-08T21:45:01.875Z,56.8
2022-11-08T21:50:01.870Z,58.3
2022-11-08T21:55:01.994Z,60.0
2022-11-08T22:00:03.010Z,59.1
2022-11-08T22:05:03.054Z,57.3
2022-11-08T22:10:01.753Z,55.1
2022-11-08T22:15:01.912Z,52.8
2022-11-08T22:20:01.792Z,51.8
2022-11-08T22:25:02.000Z,51.7
2022-11-08T22:30:01.851Z,51.8
2022-11-08T22:40:02.362Z,53.4
2022-11-08T22:50:01.814Z,55.1
2022-11-08T22:55:01.877Z,57.0
2022-11-08T23:10:01.825Z,53.3
2022-11-08T23:25:01.813Z,52.8
2022-11-08T23:35:01.912Z,54.6
2022-11-08T23:40:01.995Z,54.7
2022-11-08T23:50:01.766Z,53.2
2022-11-08T23:55:01.922Z,53.0
